sensor_id;sensor_type;location;lat;lon;timestamp;temperature;humidity
792;DHT22;379;49.022;12.148;2023-02-15T00:01:22;-0.80;99.90
792;DHT22;379;49.022;12.148;2023-02-15T00:03:49;-0.80;99.90
792;DHT22;379;49.022;12.148;2023-02-15T00:06:16;-0.80;99.90
792;DHT22;379;49.022;12.148;2023-02-15T00:08:43;-0.80;99.90
792;DHT22;379;49.022;12.148;2023-02-15T00:11:12;-0.80;99.90
792;DHT22;379;49.022;12.148;2023-02-15T00:13:40;-0.80;99.90
792;DHT22;379;49.022;12.148;2023-02-15T00:16:09;-0.80;99.90
792;DHT22;379;49.022;12.148;2023-02-15T00:18:36;-0.70;99.90
792;DHT22;379;49.022;12.148;2023-02-15T00:21:05;-0.80;99.90
792;DHT22;379;49.022;12.148;2023-02-15T00:23:32;-0.80;99.90
792;DHT22;379;49.022;12.148;2023-02-15T00:26:06;-0.80;99.90
792;DHT22;379;49.022;12.148;2023-02-15T00:28:33;-0.80;99.90
792;DHT22;379;49.022;12.148;2023-02-15T00:31:05;-0.80;99.90
792;DHT22;379;49.022;12.148;2023-02-15T00:33:32;-0.80;99.90
792;DHT22;379;49.022;12.148;2023-02-15T00:35:59;-0.80;99.90
792;DHT22;379;49.022;12.148;2023-02-15T00:38:27;-0.80;99.90
792;DHT22;379;49.022;12.148;2023-02-15T00:40:54;-0.80;99.90
792;DHT22;379;49.022;12.148;2023-02-15T00:43:21;-0.80;99.90
792;DHT22;379;49.022;12.148;2023-02-15T00:45:48;-0.80;99.90
792;DHT22;379;49.022;12.148;2023-02-15T00:48:16;-0.80;99.90
792;DHT22;379;49.022;12.148;2023-02-15T00:50:45;-0.80;99.90
792;DHT22;379;49.022;12.148;2023-02-15T00:53:12;-0.80;99.90
792;DHT22;379;49.022;12.148;2023-02-15T00:55:39;-0.80;99.90
792;DHT22;379;49.022;12.148;2023-02-15T00:58:06;-0.80;99.90
792;DHT22;379;49.022;12.148;2023-02-15T01:00:33;-0.90;99.90
792;DHT22;379;49.022;12.148;2023-02-15T01:02:59;-0.80;99.90
792;DHT22;379;49.022;12.148;2023-02-15T01:05:28;-0.80;99.90
792;DHT22;379;49.022;12.148;2023-02-15T01:07:56;-0.80;99.90
792;DHT22;379;49.022;12.148;2023-02-15T01:10:23;-0.80;99.90
792;DHT22;379;49.022;12.148;2023-02-15T01:12:50;-0.80;99.90
792;DHT22;379;49.022;12.148;2023-02-15T01:15:17;-0.80;99.90
792;DHT22;379;49.022;12.148;2023-02-15T01:17:44;-0.80;99.90
792;DHT22;379;49.022;12.148;2023-02-15T01:20:16;-0.80;99.90
792;DHT22;379;49.022;12.148;2023-02-15T01:22:45;-0.80;99.90
792;DHT22;379;49.022;12.148;2023-02-15T01:25:12;-0.80;99.90
792;DHT22;379;49.022;12.148;2023-02-15T01:27:38;-0.80;99.90
792;DHT22;379;49.022;12.148;2023-02-15T01:30:06;-0.80;99.90
792;DHT22;379;49.022;12.148;2023-02-15T01:32:34;-0.80;99.90
792;DHT22;379;49.022;12.148;2023-02-15T01:35:01;-0.80;99.90
792;DHT22;379;49.022;12.148;2023-02-15T01:37:30;-0.80;99.90
792;DHT22;379;49.022;12.148;2023-02-15T01:39:58;-0.80;99.90
792;DHT22;379;49.022;12.148;2023-02-15T01:42:26;-0.80;99.90
792;DHT22;379;49.022;12.148;2023-02-15T01:44:54;-0.80;99.90
792;DHT22;379;49.022;12.148;2023-02-15T01:47:27;-0.80;99.90
792;DHT22;379;49.022;12.148;2023-02-15T01:50:04;-0.80;99.90
792;DHT22;379;49.022;12.148;2023-02-15T01:52:35;-0.80;99.90
792;DHT22;379;49.022;12.148;2023-02-15T01:55:06;-0.80;99.90
792;DHT22;379;49.022;12.148;2023-02-15T01:57:34;-0.80;99.90
792;DHT22;379;49.022;12.148;2023-02-15T02:00:05;-0.80;99.90
792;DHT22;379;49.022;12.148;2023-02-15T02:05:55;-0.80;99.90
792;DHT22;379;49.022;12.148;2023-02-15T02:08:21;-0.80;99.90
792;DHT22;379;49.022;12.148;2023-02-15T02:10:49;-0.80;99.90
792;DHT22;379;49.022;12.148;2023-02-15T02:13:16;-0.80;99.90
792;DHT22;379;49.022;12.148;2023-02-15T02:15:47;-0.80;99.90
792;DHT22;379;49.022;12.148;2023-02-15T02:18:27;-0.80;99.90
792;DHT22;379;49.022;12.148;2023-02-15T02:27:17;-0.80;99.90
792;DHT22;379;49.022;12.148;2023-02-15T02:35:59;-0.80;99.90
792;DHT22;379;49.022;12.148;2023-02-15T02:38:35;-0.80;99.90
792;DHT22;379;49.022;12.148;2023-02-15T02:41:09;-0.80;99.90
792;DHT22;379;49.022;12.148;2023-02-15T02:43:47;-0.80;99.90
792;DHT22;379;49.022;12.148;2023-02-15T02:46:20;-0.90;99.90
792;DHT22;379;49.022;12.148;2023-02-15T02:48:48;-0.90;99.90
792;DHT22;379;49.022;12.148;2023-02-15T02:51:17;-0.90;99.90
792;DHT22;379;49.022;12.148;2023-02-15T02:53:49;-0.90;99.90
792;DHT22;379;49.022;12.148;2023-02-15T02:56:21;-0.90;99.90
792;DHT22;379;49.022;12.148;2023-02-15T02:58:54;-0.90;99.90
792;DHT22;379;49.022;12.148;2023-02-15T03:01:27;-0.90;99.90
792;DHT22;379;49.022;12.148;2023-02-15T03:03:59;-0.90;99.90
792;DHT22;379;49.022;12.148;2023-02-15T03:06:33;-0.90;99.90
792;DHT22;379;49.022;12.148;2023-02-15T03:09:06;-1.00;99.90
792;DHT22;379;49.022;12.148;2023-02-15T03:11:40;-1.10;99.90
792;DHT22;379;49.022;12.148;2023-02-15T03:14:07;-1.10;99.90
792;DHT22;379;49.022;12.148;2023-02-15T03:16:34;-1.20;99.90
792;DHT22;379;49.022;12.148;2023-02-15T03:19:05;-1.20;99.90
792;DHT22;379;49.022;12.148;2023-02-15T03:21:38;-1.20;99.90
792;DHT22;379;49.022;12.148;2023-02-15T03:24:09;-1.20;99.90
792;DHT22;379;49.022;12.148;2023-02-15T03:26:39;-1.20;99.90
792;DHT22;379;49.022;12.148;2023-02-15T03:29:07;-1.20;99.90
792;DHT22;379;49.022;12.148;2023-02-15T03:31:38;-1.20;99.90
792;DHT22;379;49.022;12.148;2023-02-15T03:34:09;-1.20;99.90
792;DHT22;379;49.022;12.148;2023-02-15T03:36:43;-1.20;99.90
792;DHT22;379;49.022;12.148;2023-02-15T03:39:17;-1.20;99.90
792;DHT22;379;49.022;12.148;2023-02-15T03:41:49;-1.10;99.90
792;DHT22;379;49.022;12.148;2023-02-15T03:44:22;-1.10;99.90
792;DHT22;379;49.022;12.148;2023-02-15T03:46:53;-1.10;99.90
792;DHT22;379;49.022;12.148;2023-02-15T03:49:24;-1.10;99.90
792;DHT22;379;49.022;12.148;2023-02-15T03:51:56;-1.10;99.90
792;DHT22;379;49.022;12.148;2023-02-15T03:54:26;-1.20;99.90
792;DHT22;379;49.022;12.148;2023-02-15T03:57:15;-1.10;99.90
792;DHT22;379;49.022;12.148;2023-02-15T04:00:00;-1.10;99.90
792;DHT22;379;49.022;12.148;2023-02-15T04:02:54;-1.10;99.90
792;DHT22;379;49.022;12.148;2023-02-15T04:05:22;-1.10;99.90
792;DHT22;379;49.022;12.148;2023-02-15T04:07:50;-1.10;99.90
792;DHT22;379;49.022;12.148;2023-02-15T04:10:17;-1.10;99.90
792;DHT22;379;49.022;12.148;2023-02-15T04:13:01;-1.10;99.90
792;DHT22;379;49.022;12.148;2023-02-15T04:15:28;-1.10;99.90
792;DHT22;379;49.022;12.148;2023-02-15T04:18:14;-1.10;99.90
792;DHT22;379;49.022;12.148;2023-02-15T04:20:43;-1.10;99.90
792;DHT22;379;49.022;12.148;2023-02-15T04:23:29;-1.10;99.90
792;DHT22;379;49.022;12.148;2023-02-15T04:26:13;-1.00;99.90
792;DHT22;379;49.022;12.148;2023-02-15T04:28:40;-1.10;99.90
792;DHT22;379;49.022;12.148;2023-02-15T04:31:07;-1.10;99.90
792;DHT22;379;49.022;12.148;2023-02-15T04:33:34;-1.10;99.90
792;DHT22;379;49.022;12.148;2023-02-15T04:36:01;-1.10;99.90
792;DHT22;379;49.022;12.148;2023-02-15T04:38:29;-1.10;99.90
792;DHT22;379;49.022;12.148;2023-02-15T04:40:56;-1.10;99.90
792;DHT22;379;49.022;12.148;2023-02-15T04:43:23;-1.10;99.90
792;DHT22;379;49.022;12.148;2023-02-15T04:45:50;-1.10;99.90
792;DHT22;379;49.022;12.148;2023-02-15T04:48:17;-1.20;99.90
792;DHT22;379;49.022;12.148;2023-02-15T04:50:44;-1.20;99.90
792;DHT22;379;49.022;12.148;2023-02-15T04:53:11;-1.10;99.90
792;DHT22;379;49.022;12.148;2023-02-15T04:55:39;-1.10;99.90
792;DHT22;379;49.022;12.148;2023-02-15T04:58:07;-1.10;99.90
792;DHT22;379;49.022;12.148;2023-02-15T05:00:34;-1.10;99.90
792;DHT22;379;49.022;12.148;2023-02-15T05:03:00;-1.10;99.90
792;DHT22;379;49.022;12.148;2023-02-15T05:05:27;-1.10;99.90
792;DHT22;379;49.022;12.148;2023-02-15T05:07:54;-1.10;99.90
792;DHT22;379;49.022;12.148;2023-02-15T05:10:20;-1.10;99.90
792;DHT22;379;49.022;12.148;2023-02-15T05:12:49;-1.10;99.90
792;DHT22;379;49.022;12.148;2023-02-15T05:15:16;-1.10;99.90
792;DHT22;379;49.022;12.148;2023-02-15T05:17:42;-1.10;99.90
792;DHT22;379;49.022;12.148;2023-02-15T05:20:10;-1.10;99.90
792;DHT22;379;49.022;12.148;2023-02-15T05:22:37;-1.10;99.90
792;DHT22;379;49.022;12.148;2023-02-15T05:25:03;-1.00;99.90
792;DHT22;379;49.022;12.148;2023-02-15T05:27:49;-1.00;99.90
792;DHT22;379;49.022;12.148;2023-02-15T05:30:33;-1.00;99.90
792;DHT22;379;49.022;12.148;2023-02-15T05:33:00;-1.00;99.90
792;DHT22;379;49.022;12.148;2023-02-15T05:35:27;-1.00;99.90
792;DHT22;379;49.022;12.148;2023-02-15T05:37:53;-1.00;99.90
792;DHT22;379;49.022;12.148;2023-02-15T05:40:20;-1.00;99.90
792;DHT22;379;49.022;12.148;2023-02-15T05:42:48;-1.00;99.90
792;DHT22;379;49.022;12.148;2023-02-15T05:45:15;-1.00;99.90
792;DHT22;379;49.022;12.148;2023-02-15T05:47:42;-1.00;99.90
792;DHT22;379;49.022;12.148;2023-02-15T05:50:09;-1.00;99.90
792;DHT22;379;49.022;12.148;2023-02-15T05:52:36;-1.00;99.90
792;DHT22;379;49.022;12.148;2023-02-15T05:55:04;-1.00;99.90
792;DHT22;379;49.022;12.148;2023-02-15T05:57:31;-1.00;99.90
792;DHT22;379;49.022;12.148;2023-02-15T05:59:59;-1.00;99.90
792;DHT22;379;49.022;12.148;2023-02-15T06:02:25;-1.00;99.90
792;DHT22;379;49.022;12.148;2023-02-15T06:04:52;-1.00;99.90
792;DHT22;379;49.022;12.148;2023-02-15T06:07:19;-1.00;99.90
792;DHT22;379;49.022;12.148;2023-02-15T06:09:48;-1.00;99.90
792;DHT22;379;49.022;12.148;2023-02-15T06:12:15;-1.00;99.90
792;DHT22;379;49.022;12.148;2023-02-15T06:14:41;-1.00;99.90
792;DHT22;379;49.022;12.148;2023-02-15T06:17:10;-1.00;99.90
792;DHT22;379;49.022;12.148;2023-02-15T06:19:37;-1.00;99.90
792;DHT22;379;49.022;12.148;2023-02-15T06:22:04;-1.00;99.90
792;DHT22;379;49.022;12.148;2023-02-15T06:24:31;-1.00;99.90
792;DHT22;379;49.022;12.148;2023-02-15T06:26:59;-1.00;99.90
792;DHT22;379;49.022;12.148;2023-02-15T06:29:26;-1.00;99.90
792;DHT22;379;49.022;12.148;2023-02-15T06:31:53;-1.00;99.90
792;DHT22;379;49.022;12.148;2023-02-15T06:34:21;-1.00;99.90
792;DHT22;379;49.022;12.148;2023-02-15T06:36:47;-1.00;99.90
792;DHT22;379;49.022;12.148;2023-02-15T06:39:14;-1.10;99.90
792;DHT22;379;49.022;12.148;2023-02-15T06:41:41;-1.10;99.90
792;DHT22;379;49.022;12.148;2023-02-15T06:44:08;-1.10;99.90
792;DHT22;379;49.022;12.148;2023-02-15T06:46:35;-1.10;99.90
792;DHT22;379;49.022;12.148;2023-02-15T06:49:02;-1.00;99.90
792;DHT22;379;49.022;12.148;2023-02-15T06:51:30;-1.10;99.90
792;DHT22;379;49.022;12.148;2023-02-15T06:53:56;-1.10;99.90
792;DHT22;379;49.022;12.148;2023-02-15T06:56:23;-1.10;99.90
792;DHT22;379;49.022;12.148;2023-02-15T06:58:50;-1.00;99.90
792;DHT22;379;49.022;12.148;2023-02-15T07:01:18;-1.00;99.90
792;DHT22;379;49.022;12.148;2023-02-15T07:03:45;-1.00;99.90
792;DHT22;379;49.022;12.148;2023-02-15T07:06:12;-0.90;99.90
792;DHT22;379;49.022;12.148;2023-02-15T07:08:40;-0.90;99.90
792;DHT22;379;49.022;12.148;2023-02-15T07:11:07;-0.90;99.90
792;DHT22;379;49.022;12.148;2023-02-15T07:13:52;-0.90;99.90
792;DHT22;379;49.022;12.148;2023-02-15T07:16:18;-0.90;99.90
792;DHT22;379;49.022;12.148;2023-02-15T07:18:45;-0.90;99.90
792;DHT22;379;49.022;12.148;2023-02-15T07:21:12;-0.90;99.90
792;DHT22;379;49.022;12.148;2023-02-15T07:23:40;-0.80;99.90
792;DHT22;379;49.022;12.148;2023-02-15T07:26:07;-0.80;99.90
792;DHT22;379;49.022;12.148;2023-02-15T07:28:35;-0.80;99.90
792;DHT22;379;49.022;12.148;2023-02-15T07:31:02;-0.70;99.90
792;DHT22;379;49.022;12.148;2023-02-15T07:33:30;-0.70;99.90
792;DHT22;379;49.022;12.148;2023-02-15T07:35:59;-0.70;99.90
792;DHT22;379;49.022;12.148;2023-02-15T07:38:29;-0.70;99.90
792;DHT22;379;49.022;12.148;2023-02-15T07:40:59;-0.70;99.90
792;DHT22;379;49.022;12.148;2023-02-15T07:43:26;-0.70;99.90
792;DHT22;379;49.022;12.148;2023-02-15T07:45:53;-0.60;99.90
792;DHT22;379;49.022;12.148;2023-02-15T07:48:20;-0.60;99.90
792;DHT22;379;49.022;12.148;2023-02-15T07:50:47;-0.50;99.90
792;DHT22;379;49.022;12.148;2023-02-15T07:53:14;-0.50;99.90
792;DHT22;379;49.022;12.148;2023-02-15T07:55:41;-0.60;99.90
792;DHT22;379;49.022;12.148;2023-02-15T07:58:09;-0.60;99.90
792;DHT22;379;49.022;12.148;2023-02-15T08:00:36;-0.50;99.90
792;DHT22;379;49.022;12.148;2023-02-15T08:03:23;-0.50;99.90
792;DHT22;379;49.022;12.148;2023-02-15T08:05:56;-0.40;99.90
792;DHT22;379;49.022;12.148;2023-02-15T08:08:24;-0.40;99.90
792;DHT22;379;49.022;12.148;2023-02-15T08:11:05;-0.40;99.90
792;DHT22;379;49.022;12.148;2023-02-15T08:13:53;-0.30;99.90
792;DHT22;379;49.022;12.148;2023-02-15T08:16:22;-0.30;99.90
792;DHT22;379;49.022;12.148;2023-02-15T08:18:49;-0.20;99.90
792;DHT22;379;49.022;12.148;2023-02-15T08:21:15;-0.20;99.90
792;DHT22;379;49.022;12.148;2023-02-15T08:23:42;-0.20;99.90
792;DHT22;379;49.022;12.148;2023-02-15T08:26:09;-0.20;99.90
792;DHT22;379;49.022;12.148;2023-02-15T08:28:36;-0.20;99.90
792;DHT22;379;49.022;12.148;2023-02-15T08:31:08;-0.20;99.90
792;DHT22;379;49.022;12.148;2023-02-15T08:33:36;-0.20;99.90
792;DHT22;379;49.022;12.148;2023-02-15T08:36:04;-0.20;99.90
792;DHT22;379;49.022;12.148;2023-02-15T08:38:31;-0.30;99.90
792;DHT22;379;49.022;12.148;2023-02-15T08:40:58;-0.20;99.90
792;DHT22;379;49.022;12.148;2023-02-15T08:43:25;-0.20;99.90
792;DHT22;379;49.022;12.148;2023-02-15T08:45:51;-0.20;99.90
792;DHT22;379;49.022;12.148;2023-02-15T08:48:19;-0.30;99.90
792;DHT22;379;49.022;12.148;2023-02-15T08:50:46;-0.30;99.90
792;DHT22;379;49.022;12.148;2023-02-15T08:53:13;-0.30;99.90
792;DHT22;379;49.022;12.148;2023-02-15T08:55:39;-0.30;99.90
792;DHT22;379;49.022;12.148;2023-02-15T08:58:06;-0.30;99.90
792;DHT22;379;49.022;12.148;2023-02-15T09:00:33;-0.20;99.90
792;DHT22;379;49.022;12.148;2023-02-15T09:03:00;-0.10;99.90
792;DHT22;379;49.022;12.148;2023-02-15T09:05:28;-0.10;99.90
792;DHT22;379;49.022;12.148;2023-02-15T09:07:54;-0.10;99.90
792;DHT22;379;49.022;12.148;2023-02-15T09:10:21;0.00;99.90
792;DHT22;379;49.022;12.148;2023-02-15T09:12:48;0.00;99.90
792;DHT22;379;49.022;12.148;2023-02-15T09:15:16;0.00;99.90
792;DHT22;379;49.022;12.148;2023-02-15T09:17:43;0.00;99.90
792;DHT22;379;49.022;12.148;2023-02-15T09:20:10;0.10;99.90
792;DHT22;379;49.022;12.148;2023-02-15T09:22:38;0.20;99.90
792;DHT22;379;49.022;12.148;2023-02-15T09:25:05;0.20;99.90
792;DHT22;379;49.022;12.148;2023-02-15T09:27:32;0.20;99.90
792;DHT22;379;49.022;12.148;2023-02-15T09:29:59;0.20;99.90
792;DHT22;379;49.022;12.148;2023-02-15T09:32:26;0.20;99.90
792;DHT22;379;49.022;12.148;2023-02-15T09:34:52;0.20;99.90
792;DHT22;379;49.022;12.148;2023-02-15T09:37:19;0.20;99.90
792;DHT22;379;49.022;12.148;2023-02-15T09:39:47;0.20;99.90
792;DHT22;379;49.022;12.148;2023-02-15T09:42:26;0.30;99.90
792;DHT22;379;49.022;12.148;2023-02-15T09:45:15;0.40;99.90
792;DHT22;379;49.022;12.148;2023-02-15T09:48:03;0.50;99.90
792;DHT22;379;49.022;12.148;2023-02-15T09:50:38;0.50;99.90
792;DHT22;379;49.022;12.148;2023-02-15T09:53:28;0.60;99.90
792;DHT22;379;49.022;12.148;2023-02-15T09:56:05;0.60;99.90
792;DHT22;379;49.022;12.148;2023-02-15T09:58:40;0.60;99.90
792;DHT22;379;49.022;12.148;2023-02-15T10:01:15;0.60;99.90
792;DHT22;379;49.022;12.148;2023-02-15T10:03:54;0.60;99.90
792;DHT22;379;49.022;12.148;2023-02-15T10:06:40;0.60;99.90
792;DHT22;379;49.022;12.148;2023-02-15T10:09:23;0.70;99.90
792;DHT22;379;49.022;12.148;2023-02-15T10:12:09;0.80;99.90
792;DHT22;379;49.022;12.148;2023-02-15T10:15:03;0.90;99.90
792;DHT22;379;49.022;12.148;2023-02-15T10:17:45;0.90;99.90
792;DHT22;379;49.022;12.148;2023-02-15T10:20:22;1.00;99.90
792;DHT22;379;49.022;12.148;2023-02-15T10:23:01;1.00;99.90
792;DHT22;379;49.022;12.148;2023-02-15T10:25:40;1.00;99.90
792;DHT22;379;49.022;12.148;2023-02-15T10:28:15;1.10;99.90
792;DHT22;379;49.022;12.148;2023-02-15T10:30:46;1.20;99.90
792;DHT22;379;49.022;12.148;2023-02-15T10:33:24;1.20;99.90
792;DHT22;379;49.022;12.148;2023-02-15T10:36:01;1.30;99.90
792;DHT22;379;49.022;12.148;2023-02-15T10:38:35;1.30;99.90
792;DHT22;379;49.022;12.148;2023-02-15T10:41:09;1.30;99.90
792;DHT22;379;49.022;12.148;2023-02-15T10:43:54;1.30;99.90
792;DHT22;379;49.022;12.148;2023-02-15T10:46:50;1.30;99.90
792;DHT22;379;49.022;12.148;2023-02-15T10:52:20;1.30;99.90
792;DHT22;379;49.022;12.148;2023-02-15T10:55:01;1.40;99.90
792;DHT22;379;49.022;12.148;2023-02-15T10:57:38;1.40;99.90
792;DHT22;379;49.022;12.148;2023-02-15T11:00:15;1.50;99.90
792;DHT22;379;49.022;12.148;2023-02-15T11:02:54;1.60;99.90
792;DHT22;379;49.022;12.148;2023-02-15T11:05:35;1.60;99.90
792;DHT22;379;49.022;12.148;2023-02-15T11:08:06;1.60;99.90
792;DHT22;379;49.022;12.148;2023-02-15T11:10:35;1.60;99.90
792;DHT22;379;49.022;12.148;2023-02-15T11:13:08;1.60;99.90
792;DHT22;379;49.022;12.148;2023-02-15T11:15:39;1.60;99.90
792;DHT22;379;49.022;12.148;2023-02-15T11:18:13;1.60;99.90
792;DHT22;379;49.022;12.148;2023-02-15T11:20:45;1.60;99.90
792;DHT22;379;49.022;12.148;2023-02-15T11:23:14;1.60;99.90
792;DHT22;379;49.022;12.148;2023-02-15T11:25:46;1.60;99.90
792;DHT22;379;49.022;12.148;2023-02-15T11:28:18;1.60;99.90
792;DHT22;379;49.022;12.148;2023-02-15T11:30:51;1.60;99.90
792;DHT22;379;49.022;12.148;2023-02-15T11:33:23;1.70;99.90
792;DHT22;379;49.022;12.148;2023-02-15T11:35:53;1.60;99.90
792;DHT22;379;49.022;12.148;2023-02-15T11:38:24;1.60;99.90
792;DHT22;379;49.022;12.148;2023-02-15T11:40:56;1.60;99.90
792;DHT22;379;49.022;12.148;2023-02-15T11:43:28;1.60;99.90
792;DHT22;379;49.022;12.148;2023-02-15T11:45:58;1.70;99.90
792;DHT22;379;49.022;12.148;2023-02-15T11:48:24;1.70;99.90
792;DHT22;379;49.022;12.148;2023-02-15T11:50:51;1.70;99.90
792;DHT22;379;49.022;12.148;2023-02-15T11:53:20;1.80;99.90
792;DHT22;379;49.022;12.148;2023-02-15T11:55:50;1.80;99.90
792;DHT22;379;49.022;12.148;2023-02-15T11:58:25;1.80;99.90
792;DHT22;379;49.022;12.148;2023-02-15T12:00:58;1.70;99.90
792;DHT22;379;49.022;12.148;2023-02-15T12:03:31;1.60;99.90
792;DHT22;379;49.022;12.148;2023-02-15T12:06:03;1.60;99.90
792;DHT22;379;49.022;12.148;2023-02-15T12:08:37;1.70;99.90
792;DHT22;379;49.022;12.148;2023-02-15T12:11:07;1.60;99.90
792;DHT22;379;49.022;12.148;2023-02-15T12:13:54;1.60;99.90
792;DHT22;379;49.022;12.148;2023-02-15T12:16:23;1.60;99.90
792;DHT22;379;49.022;12.148;2023-02-15T12:18:50;1.50;99.90
792;DHT22;379;49.022;12.148;2023-02-15T12:21:26;1.40;99.90
792;DHT22;379;49.022;12.148;2023-02-15T12:23:54;1.50;99.90
792;DHT22;379;49.022;12.148;2023-02-15T12:26:24;1.50;99.90
792;DHT22;379;49.022;12.148;2023-02-15T12:28:51;1.60;99.90
792;DHT22;379;49.022;12.148;2023-02-15T12:31:22;1.60;99.90
792;DHT22;379;49.022;12.148;2023-02-15T12:33:52;1.60;99.90
792;DHT22;379;49.022;12.148;2023-02-15T12:36:21;1.60;99.90
792;DHT22;379;49.022;12.148;2023-02-15T12:39:09;1.60;99.90
792;DHT22;379;49.022;12.148;2023-02-15T12:41:45;1.40;99.90
792;DHT22;379;49.022;12.148;2023-02-15T12:44:16;1.40;99.90
792;DHT22;379;49.022;12.148;2023-02-15T12:46:56;1.40;99.90
792;DHT22;379;49.022;12.148;2023-02-15T12:49:23;1.30;99.90
792;DHT22;379;49.022;12.148;2023-02-15T12:51:51;1.30;99.90
792;DHT22;379;49.022;12.148;2023-02-15T12:54:36;1.20;99.90
792;DHT22;379;49.022;12.148;2023-02-15T12:57:19;1.20;99.90
792;DHT22;379;49.022;12.148;2023-02-15T12:59:51;1.20;99.90
792;DHT22;379;49.022;12.148;2023-02-15T13:02:33;1.30;99.90
792;DHT22;379;49.022;12.148;2023-02-15T13:05:10;1.30;99.90
792;DHT22;379;49.022;12.148;2023-02-15T13:07:45;1.30;99.90
792;DHT22;379;49.022;12.148;2023-02-15T13:10:22;1.30;99.90
792;DHT22;379;49.022;12.148;2023-02-15T13:12:51;1.30;99.90
792;DHT22;379;49.022;12.148;2023-02-15T13:15:29;1.30;99.90
792;DHT22;379;49.022;12.148;2023-02-15T13:17:59;1.30;99.90
792;DHT22;379;49.022;12.148;2023-02-15T13:20:27;1.30;99.90
792;DHT22;379;49.022;12.148;2023-02-15T13:22:59;1.40;99.90
792;DHT22;379;49.022;12.148;2023-02-15T13:25:29;1.40;99.90
792;DHT22;379;49.022;12.148;2023-02-15T13:28:00;1.40;99.90
792;DHT22;379;49.022;12.148;2023-02-15T13:30:31;1.40;99.90
792;DHT22;379;49.022;12.148;2023-02-15T13:33:04;1.40;99.90
792;DHT22;379;49.022;12.148;2023-02-15T13:35:38;1.30;99.90
792;DHT22;379;49.022;12.148;2023-02-15T13:38:22;1.20;99.90
792;DHT22;379;49.022;12.148;2023-02-15T13:40:58;1.30;99.90
792;DHT22;379;49.022;12.148;2023-02-15T13:43:35;1.30;99.90
792;DHT22;379;49.022;12.148;2023-02-15T13:46:13;1.30;99.90
792;DHT22;379;49.022;12.148;2023-02-15T13:48:52;1.40;99.90
792;DHT22;379;49.022;12.148;2023-02-15T13:51:31;1.50;99.90
792;DHT22;379;49.022;12.148;2023-02-15T13:54:42;1.50;99.90
792;DHT22;379;49.022;12.148;2023-02-15T13:57:25;1.60;99.90
792;DHT22;379;49.022;12.148;2023-02-15T14:00:03;1.50;99.90
792;DHT22;379;49.022;12.148;2023-02-15T14:03:12;1.50;99.90
792;DHT22;379;49.022;12.148;2023-02-15T14:05:57;1.50;99.90
792;DHT22;379;49.022;12.148;2023-02-15T14:08:49;1.40;99.90
792;DHT22;379;49.022;12.148;2023-02-15T14:11:26;1.40;99.90
792;DHT22;379;49.022;12.148;2023-02-15T14:14:11;1.40;99.90
792;DHT22;379;49.022;12.148;2023-02-15T14:16:50;1.30;99.90
792;DHT22;379;49.022;12.148;2023-02-15T14:19:25;1.10;99.90
792;DHT22;379;49.022;12.148;2023-02-15T14:21:59;1.00;99.90
792;DHT22;379;49.022;12.148;2023-02-15T14:24:33;1.00;99.90
792;DHT22;379;49.022;12.148;2023-02-15T14:27:10;1.00;99.90
792;DHT22;379;49.022;12.148;2023-02-15T14:29:47;1.00;99.90
792;DHT22;379;49.022;12.148;2023-02-15T14:32:20;1.00;99.90
792;DHT22;379;49.022;12.148;2023-02-15T14:34:50;1.00;99.90
792;DHT22;379;49.022;12.148;2023-02-15T14:37:27;0.90;99.90
792;DHT22;379;49.022;12.148;2023-02-15T14:39:59;0.90;99.90
792;DHT22;379;49.022;12.148;2023-02-15T14:42:53;0.80;99.90
792;DHT22;379;49.022;12.148;2023-02-15T14:45:28;0.70;99.90
792;DHT22;379;49.022;12.148;2023-02-15T14:48:01;0.60;99.90
792;DHT22;379;49.022;12.148;2023-02-15T14:50:45;0.60;99.90
792;DHT22;379;49.022;12.148;2023-02-15T14:56:22;0.50;99.90
792;DHT22;379;49.022;12.148;2023-02-15T14:59:17;0.40;99.90
792;DHT22;379;49.022;12.148;2023-02-15T15:01:56;0.40;99.90
792;DHT22;379;49.022;12.148;2023-02-15T15:04:29;0.30;99.90
792;DHT22;379;49.022;12.148;2023-02-15T15:07:03;0.30;99.90
792;DHT22;379;49.022;12.148;2023-02-15T15:09:37;0.30;99.90
792;DHT22;379;49.022;12.148;2023-02-15T15:12:36;0.30;99.90
792;DHT22;379;49.022;12.148;2023-02-15T15:15:04;0.30;99.90
792;DHT22;379;49.022;12.148;2023-02-15T15:17:52;0.20;99.90
792;DHT22;379;49.022;12.148;2023-02-15T15:20:42;0.20;99.90
792;DHT22;379;49.022;12.148;2023-02-15T15:23:39;0.10;99.90
792;DHT22;379;49.022;12.148;2023-02-15T15:26:29;0.10;99.90
792;DHT22;379;49.022;12.148;2023-02-15T15:28:58;0.10;99.90
792;DHT22;379;49.022;12.148;2023-02-15T15:31:43;0.20;99.90
792;DHT22;379;49.022;12.148;2023-02-15T15:34:42;0.10;99.90
792;DHT22;379;49.022;12.148;2023-02-15T15:37:55;0.10;99.90
792;DHT22;379;49.022;12.148;2023-02-15T15:40:47;0.10;99.90
792;DHT22;379;49.022;12.148;2023-02-15T15:43:42;0.00;99.90
792;DHT22;379;49.022;12.148;2023-02-15T15:49:09;0.00;99.90
792;DHT22;379;49.022;12.148;2023-02-15T15:51:40;0.00;99.90
792;DHT22;379;49.022;12.148;2023-02-15T15:54:14;0.00;99.90
792;DHT22;379;49.022;12.148;2023-02-15T15:56:44;-0.10;99.90
792;DHT22;379;49.022;12.148;2023-02-15T15:59:18;-0.10;99.90
792;DHT22;379;49.022;12.148;2023-02-15T16:01:46;-0.10;99.90
792;DHT22;379;49.022;12.148;2023-02-15T16:04:23;-0.10;99.90
792;DHT22;379;49.022;12.148;2023-02-15T16:06:50;-0.20;99.90
792;DHT22;379;49.022;12.148;2023-02-15T16:09:19;-0.20;99.90
792;DHT22;379;49.022;12.148;2023-02-15T16:11:48;-0.20;99.90
792;DHT22;379;49.022;12.148;2023-02-15T16:14:22;-0.20;99.90
792;DHT22;379;49.022;12.148;2023-02-15T16:16:54;-0.20;99.90
792;DHT22;379;49.022;12.148;2023-02-15T16:19:24;-0.20;99.90
792;DHT22;379;49.022;12.148;2023-02-15T16:21:53;-0.30;99.90
792;DHT22;379;49.022;12.148;2023-02-15T16:24:42;-0.30;99.90
792;DHT22;379;49.022;12.148;2023-02-15T16:27:33;-0.30;99.90
792;DHT22;379;49.022;12.148;2023-02-15T16:30:21;-0.40;99.90
792;DHT22;379;49.022;12.148;2023-02-15T16:32:48;-0.40;99.90
792;DHT22;379;49.022;12.148;2023-02-15T16:35:16;-0.40;99.90
792;DHT22;379;49.022;12.148;2023-02-15T16:37:44;-0.40;99.90
792;DHT22;379;49.022;12.148;2023-02-15T16:40:27;-0.40;99.90
792;DHT22;379;49.022;12.148;2023-02-15T16:42:57;-0.40;99.90
792;DHT22;379;49.022;12.148;2023-02-15T16:45:30;-0.50;99.90
792;DHT22;379;49.022;12.148;2023-02-15T16:47:59;-0.50;99.90
792;DHT22;379;49.022;12.148;2023-02-15T16:50:31;-0.50;99.90
792;DHT22;379;49.022;12.148;2023-02-15T16:53:00;-0.60;99.90
792;DHT22;379;49.022;12.148;2023-02-15T16:55:30;-0.60;99.90
792;DHT22;379;49.022;12.148;2023-02-15T16:58:02;-0.50;99.90
792;DHT22;379;49.022;12.148;2023-02-15T17:00:32;-0.60;99.90
792;DHT22;379;49.022;12.148;2023-02-15T17:03:04;-0.60;99.90
792;DHT22;379;49.022;12.148;2023-02-15T17:05:32;-0.60;99.90
792;DHT22;379;49.022;12.148;2023-02-15T17:08:16;-0.60;99.90
792;DHT22;379;49.022;12.148;2023-02-15T17:10:46;-0.70;99.90
792;DHT22;379;49.022;12.148;2023-02-15T17:13:27;-0.70;99.90
792;DHT22;379;49.022;12.148;2023-02-15T17:16:28;-0.70;99.90
792;DHT22;379;49.022;12.148;2023-02-15T17:18:57;-0.70;99.90
792;DHT22;379;49.022;12.148;2023-02-15T17:21:27;-0.70;99.90
792;DHT22;379;49.022;12.148;2023-02-15T17:23:58;-0.70;99.90